Worland Municipal Airport
KWRL : rendu visible

Aérodrome :











RETROUVEZ-NOUS SUR...

 
LOGIN :

S'inscrire | Disclaimer

   EN    FR    IT 

 









Légende :    VFR   VFR Marginal   IFR   IFR Intensif   IFR Très Intensif
Visi : 
Plafond : 
>= 8 km
>= 3000ft
5 à 8 km
1000 à 3000 ft
1500m à 5 km
500 à 1000 ft
800 à 1500m
200 à 500 ft
< 800m
< 200 ft
Symboles :   Orages  Brouillard  Fortes neiges  Fortes précipitations  Vent > 20 kt






- Altitude de l'aérodrome : 4227 ft
- Code IATA : WRL


KWRL - Worland Municipal

DERNIER METAR :
  • 171453Z AUTO 00000KT 10SM CLR M03/M04 A3009 RMK AO2 SLP227 T10281044 50000

METARs EXPIRÉS :
  • 171353Z AUTO 20007KT 10SM CLR M04/M04 A3010 RMK AO2 SLP230 T10391044
  • 171253Z AUTO 22003KT 10SM CLR M06/M07 A3010 RMK AO2 SLP230 T10561067

TAF KWRL
Valide du 17 à 12h jusqu'au 18 à 12h UTC


171120Z 1712/1812 VRB03KT P6SM FEW005
FM171600 VRB03KT P6SM BKN100
FM171900 VRB05KT P6SM VCSH SCT060 BKN090
FM180000 VRB05KT P6SM BKN100



MET'MAP, la Météo Aéronautique d'un coup d'oeil ! - Copyright ORBIFLY Décembre 2007 - Disclaimer

ORBIFLY MET'MAP TEAM :

Programmation & Développement : Alexandra Zaïnal
Conception & Développement : Baudouin d'Aumeries
Co-Programmation & Développement : Marc-Olivier Méhu
Soutien technique & logistique : Manuel Goepfert

Contact : metmap@orbifly.com




SOURCES & CREDITS :

   NOAA       Earth
Advisory